Belmont Shore, California
Current Conditions -  °F | °C
As of 7:53 PM on Saturday 25 Oct 2014 (Local Time) from KLGB Reporting Station
Clear Clear  
Wind Chill: 69°   Ceiling: Unl
Heat Index: 69°   Visibility: 10mi
Dew Point: 61°   Wind: 9mph
Humidity: 75%   Direction: 310°NW
Pressure: 30"   Gusts: NA
Location:  33.7629°N, 118.126°W
Report Text: KLGB 260253Z 31008KT 10SM CLR 21/16 A3000 RMK AO2 SLP158 T02060161 53003
Loading
Personal Weather Stations






























Interactive Weather Map
Tropical Storm Tracking
New forecast layout! Learn more

10-Day Weather Forecast

Advertisements
Track Severe Weather on mobile